Time;durP1;ratioP1;P1;durP2;ratioP2;P2;SDS_P1;SDS_P2;PMS_P1;PMS_P2;Temp;Humidity;BMP_temperature;BMP_pressure;BME280_temperature;BME280_humidity;BME280_pressure;Samples;Min_cycle;Max_cycle;Signal;HPM_P1;HPM_P2
2023/10/09 00:01:48;;;;;;;;;;;13.80;99.90;;;;;;4965935;28;20058;-71
2023/10/09 00:04:15;;;;;;;11.43;6.18;;;13.80;99.90;;;;;;4973825;28;20384;-71
2023/10/09 00:06:43;;;;;;;12.15;6.43;;;13.80;99.90;;;;;;4976482;28;20038;-71
2023/10/09 00:13:03;;;;;;;14.95;7.28;;;13.90;99.90;;;;;;4953474;28;20057;-71
2023/10/09 00:15:32;;;;;;;13.63;6.72;;;13.80;99.90;;;;;;4965562;28;20050;-71
2023/10/09 00:17:58;;;;;;;13.35;6.40;;;13.90;99.90;;;;;;4974490;28;20494;-71
2023/10/09 00:20:37;;;;;;;15.45;7.05;;;13.80;99.90;;;;;;4972810;28;20058;-71
2023/10/09 00:23:04;;;;;;;13.32;6.90;;;13.90;99.90;;;;;;4975324;28;20056;-71
2023/10/09 00:25:30;;;;;;;12.85;7.63;;;13.80;99.90;;;;;;4960158;28;20038;-71
2023/10/09 00:27:59;;;;;;;17.73;7.97;;;13.80;99.90;;;;;;4989829;28;20448;-71
2023/10/09 00:30:29;;;;;;;14.68;7.65;;;13.80;99.90;;;;;;4971296;28;20054;-71
2023/10/09 00:40:56;;;;;;;17.58;9.15;;;13.80;99.90;;;;;;4966341;28;20124;-71
2023/10/09 00:43:28;;;;;;;19.52;9.68;;;13.80;99.90;;;;;;4992298;28;20039;-71
2023/10/09 00:45:54;;;;;;;16.50;9.20;;;13.70;99.90;;;;;;4960450;28;20404;-71
2023/10/09 00:48:30;;;;;;;20.05;8.75;;;13.70;99.90;;;;;;4993374;28;20113;-71
2023/10/09 00:51:00;;;;;;;19.08;9.65;;;13.70;99.90;;;;;;4975885;28;20061;-71
2023/10/09 00:53:33;;;;;;;19.35;9.25;;;13.70;99.90;;;;;;4984938;28;20523;-71
2023/10/09 00:56:04;;;;;;;20.13;9.70;;;13.70;99.90;;;;;;4976506;28;20527;-71
2023/10/09 00:58:35;;;;;;;19.17;9.50;;;13.60;99.90;;;;;;4975585;28;20523;-71
2023/10/09 01:01:04;;;;;;;21.30;10.20;;;13.60;99.90;;;;;;4986316;28;20038;-71
2023/10/09 01:03:33;;;;;;;19.52;10.05;;;13.60;99.90;;;;;;4979478;28;20038;-71
2023/10/09 01:11:18;;;;;;;22.00;10.60;;;13.60;99.90;;;;;;4971984;28;20050;-71
2023/10/09 01:16:17;;;;;;;22.27;10.93;;;13.60;99.90;;;;;;4992478;28;20048;-71
2023/10/09 01:18:44;;;;;;;18.95;10.15;;;13.60;99.90;;;;;;4960835;28;20468;-71
2023/10/09 01:21:14;;;;;;;24.45;10.75;;;13.60;99.90;;;;;;4958917;28;20042;-71
2023/10/09 01:24:03;;;;;;;25.42;10.77;;;13.50;99.90;;;;;;4994882;28;20480;-71
2023/10/09 01:26:39;;;;;;;26.05;11.30;;;13.60;99.90;;;;;;4973226;28;20074;-71
2023/10/09 01:29:29;;;;;;;23.95;11.60;;;13.60;99.90;;;;;;4979280;28;20053;-71
2023/10/09 01:31:56;;;;;;;24.00;11.75;;;13.60;99.90;;;;;;4994506;28;20057;-71
2023/10/09 01:34:41;;;;;;;23.35;11.60;;;13.50;99.90;;;;;;4988466;28;20280;-71
2023/10/09 01:37:17;;;;;;;23.05;10.90;;;13.60;99.90;;;;;;4981628;28;20043;-71
2023/10/09 01:39:44;;;;;;;22.73;10.95;;;13.60;99.90;;;;;;4972871;28;20509;-71
2023/10/09 01:42:10;;;;;;;26.30;12.18;;;13.50;99.90;;;;;;4937479;28;20038;-72
2023/10/09 01:44:42;;;;;;;27.63;12.40;;;13.60;99.90;;;;;;4967496;28;20042;-71
2023/10/09 01:47:13;;;;;;;25.50;12.40;;;13.50;99.90;;;;;;4978084;28;20035;-71
2023/10/09 01:49:43;;;;;;;22.38;12.05;;;13.60;99.90;;;;;;4971834;28;20046;-71
2023/10/09 01:52:09;;;;;;;24.02;13.18;;;13.60;99.90;;;;;;4988043;28;20049;-71
2023/10/09 01:54:40;;;;;;;29.98;13.45;;;13.60;99.90;;;;;;4966460;28;20409;-71
2023/10/09 01:57:15;;;;;;;26.23;13.40;;;13.50;99.90;;;;;;4958658;28;20492;-70
2023/10/09 01:59:49;;;;;;;32.05;14.73;;;13.60;99.90;;;;;;4982572;28;20442;-70
2023/10/09 02:02:26;;;;;;;32.67;14.75;;;13.60;99.90;;;;;;4968676;28;20515;-71
2023/10/09 02:07:40;;;;;;;29.98;14.57;;;13.60;99.90;;;;;;4969054;28;20368;-71
2023/10/09 02:10:21;;;;;;;30.40;14.80;;;13.60;99.90;;;;;;4974285;28;20049;-71
2023/10/09 02:13:29;;;;;;;30.13;14.93;;;13.60;99.90;;;;;;4985582;28;20026;-71
2023/10/09 02:15:58;;;;;;;30.38;15.65;;;13.70;99.90;;;;;;4950107;28;20074;-71
2023/10/09 02:18:36;;;;;;;36.00;16.80;;;13.70;99.90;;;;;;4939689;28;20102;-71
2023/10/09 02:23:51;;;;;;;34.80;15.77;;;13.70;99.90;;;;;;4948709;28;20047;-71
2023/10/09 02:26:40;;;;;;;34.33;16.30;;;13.60;99.90;;;;;;4961490;28;20057;-71
2023/10/09 02:29:14;;;;;;;41.95;17.35;;;13.60;99.90;;;;;;4954875;28;20053;-71
2023/10/09 02:31:43;;;;;;;39.22;16.77;;;13.60;99.90;;;;;;4969812;28;20490;-71
2023/10/09 02:34:10;;;;;;;35.28;17.33;;;13.70;99.90;;;;;;4945540;28;20043;-71
2023/10/09 02:36:43;;;;;;;41.42;18.30;;;13.60;99.90;;;;;;4958381;28;20042;-71
2023/10/09 02:39:23;;;;;;;43.70;17.92;;;13.70;99.90;;;;;;4992323;28;20077;-71
2023/10/09 02:42:19;;;;;;;43.45;18.35;;;13.70;99.90;;;;;;4952717;28;20051;-71
2023/10/09 02:44:49;;;;;;;35.80;18.48;;;13.70;99.90;;;;;;4948264;28;20043;-72
2023/10/09 02:47:29;;;;;;;41.70;18.20;;;13.70;99.90;;;;;;4968865;28;20071;-71
2023/10/09 02:50:00;;;;;;;44.53;19.00;;;13.70;99.90;;;;;;4948122;28;20043;-72
2023/10/09 02:52:32;;;;;;;37.78;18.60;;;13.70;99.90;;;;;;4953726;28;20501;-71
2023/10/09 02:55:07;;;;;;;41.38;19.42;;;13.70;99.90;;;;;;4955816;28;20408;-71
2023/10/09 02:57:36;;;;;;;42.30;19.98;;;13.70;99.90;;;;;;4949982;28;20509;-71
2023/10/09 03:00:09;;;;;;;41.33;19.67;;;13.70;99.90;;;;;;4957758;28;20479;-71
2023/10/09 03:02:39;;;;;;;44.25;19.85;;;13.70;99.90;;;;;;4958819;28;20043;-71
2023/10/09 03:05:06;;;;;;;44.92;20.15;;;13.70;99.90;;;;;;4955362;28;20046;-71
2023/10/09 03:07:34;;;;;;;45.92;21.13;;;13.70;99.90;;;;;;4950932;28;20649;-71
2023/10/09 03:09:59;;;;;;;44.53;21.10;;;13.80;99.90;;;;;;4952665;28;20047;-71
2023/10/09 03:12:27;;;;;;;46.25;20.45;;;13.80;99.90;;;;;;4956444;28;20109;-70
2023/10/09 03:14:54;;;;;;;45.78;21.33;;;13.80;99.90;;;;;;4943610;28;20058;-70
2023/10/09 03:17:20;;;;;;;46.35;21.63;;;13.90;99.90;;;;;;4958318;28;20097;-71
2023/10/09 03:19:47;;;;;;;50.13;22.05;;;13.90;99.90;;;;;;4995034;28;20042;-70
2023/10/09 03:22:12;;;;;;;52.05;21.38;;;13.90;99.90;;;;;;4960146;28;20539;-70
2023/10/09 03:24:44;;;;;;;51.55;22.17;;;13.90;99.90;;;;;;4970845;28;20251;-71
2023/10/09 03:27:11;;;;;;;56.50;22.58;;;13.90;99.90;;;;;;4965444;28;20042;-71
2023/10/09 03:29:37;;;;;;;46.80;21.95;;;13.90;99.90;;;;;;4951920;28;20405;-70
2023/10/09 03:32:03;;;;;;;49.60;22.00;;;13.90;99.90;;;;;;4967105;28;20132;-70
2023/10/09 03:34:30;;;;;;;46.17;21.67;;;13.90;99.90;;;;;;4957136;28;20050;-70
2023/10/09 03:37:06;;;;;;;47.70;22.15;;;14.00;99.90;;;;;;4956414;28;20053;-71
2023/10/09 03:39:47;;;;;;;48.05;23.27;;;13.90;99.90;;;;;;4951728;28;20117;-71
2023/10/09 03:42:19;;;;;;;52.25;21.98;;;14.00;99.90;;;;;;4953554;28;20051;-70
2023/10/09 03:49:55;;;;;;;52.25;22.35;;;14.00;99.90;;;;;;5028703;23;20066;-71
2023/10/09 03:52:25;;;;;;;54.00;22.98;;;14.00;99.90;;;;;;4956554;28;20047;-71
2023/10/09 03:54:51;;;;;;;51.95;22.45;;;14.00;99.90;;;;;;4952443;28;20125;-71
2023/10/09 03:57:19;;;;;;;46.85;22.30;;;14.00;99.90;;;;;;4953771;28;20125;-71
2023/10/09 04:09:47;;;;;;;52.42;22.70;;;14.10;99.90;;;;;;5009859;28;20058;-70
2023/10/09 04:12:20;;;;;;;54.40;23.58;;;14.10;99.90;;;;;;5011936;28;20056;-71
2023/10/09 04:14:57;;;;;;;57.45;24.65;;;14.20;99.90;;;;;;4989684;28;20040;-71
2023/10/09 04:20:24;;;;;;;58.08;25.15;;;14.20;99.90;;;;;;4972991;28;20038;-71
2023/10/09 04:22:39;;;;;;;53.95;24.27;;;14.20;99.90;;;;;;4988877;28;20058;-71
2023/10/09 04:25:14;;;;;;;59.97;25.17;;;14.30;99.90;;;;;;4967482;28;20505;-71
2023/10/09 04:27:41;;;;;;;52.35;24.08;;;14.40;99.90;;;;;;4991805;28;20057;-70
2023/10/09 04:30:07;;;;;;;64.47;25.88;;;14.40;99.90;;;;;;4979383;28;20096;-70
2023/10/09 04:32:34;;;;;;;52.42;23.88;;;14.40;99.90;;;;;;4971340;28;20042;-71
2023/10/09 04:37:52;;;;;;;56.97;24.70;;;14.50;99.90;;;;;;4973601;28;20043;-70
2023/10/09 04:43:06;;;;;;;54.97;25.98;;;14.50;99.90;;;;;;4972679;28;20051;-70
2023/10/09 04:48:45;;;;;;;58.08;24.67;;;14.60;99.90;;;;;;4983974;28;20042;-70
2023/10/09 04:51:21;;;;;;;61.28;26.98;;;14.60;99.90;;;;;;5004831;28;20065;-71
2023/10/09 04:53:59;;;;;;;62.88;25.85;;;14.60;99.90;;;;;;4979814;28;20492;-71
2023/10/09 04:56:25;;;;;;;56.55;25.85;;;14.70;99.90;;;;;;4976537;28;20473;-71
2023/10/09 04:59:03;;;;;;;58.90;26.35;;;14.70;99.90;;;;;;4978607;28;20138;-71
2023/10/09 05:01:46;;;;;;;55.80;26.17;;;14.70;99.90;;;;;;4978194;28;20055;-71
2023/10/09 05:04:39;;;;;;;63.42;27.48;;;14.80;99.90;;;;;;4972449;28;20057;-70
2023/10/09 05:07:22;;;;;;;58.90;26.67;;;14.80;99.90;;;;;;4976708;28;20053;-71
2023/10/09 05:09:55;;;;;;;59.60;27.45;;;14.90;99.90;;;;;;4974173;28;20477;-71
2023/10/09 05:12:26;;;;;;;63.47;27.63;;;14.90;99.90;;;;;;4971650;28;20486;-71
2023/10/09 05:15:12;;;;;;;58.00;26.40;;;15.00;99.90;;;;;;4972288;28;20102;-70
2023/10/09 05:28:30;;;;;;;66.75;26.50;;;15.00;99.90;;;;;;4958035;28;20718;-71
2023/10/09 05:31:06;;;;;;;61.20;25.77;;;15.10;99.90;;;;;;4947128;28;20065;-73
2023/10/09 05:33:33;;;;;;;60.97;28.67;;;15.10;99.90;;;;;;4952352;28;20085;-74
2023/10/09 05:51:12;;;;;;;56.80;28.05;;;15.40;99.90;;;;;;4949764;28;20530;-73
2023/10/09 06:04:33;;;;;;;49.28;23.40;;;15.70;99.90;;;;;;4941582;29;20051;-72
2023/10/09 06:07:10;;;;;;;51.38;22.98;;;15.70;99.90;;;;;;4934362;29;20035;-72
2023/10/09 06:12:33;;;;;;;50.08;23.92;;;15.80;99.90;;;;;;4948507;29;20418;-72
2023/10/09 06:15:19;;;;;;;45.42;22.85;;;15.90;99.90;;;;;;4934194;29;20047;-72
2023/10/09 06:17:50;;;;;;;46.55;22.05;;;15.90;99.90;;;;;;4923801;29;20036;-72
2023/10/09 06:23:15;;;;;;;42.20;21.17;;;15.90;99.90;;;;;;4927453;29;20043;-72
2023/10/09 06:25:50;;;;;;;42.23;21.60;;;16.00;99.90;;;;;;4942108;29;20102;-72
2023/10/09 06:28:18;;;;;;;44.13;21.33;;;16.00;99.90;;;;;;4927550;29;20537;-72
2023/10/09 06:30:47;;;;;;;44.92;21.85;;;16.10;99.90;;;;;;4937961;29;20556;-72
2023/10/09 06:33:29;;;;;;;44.38;21.05;;;16.10;99.90;;;;;;4917707;29;20043;-72
2023/10/09 06:35:55;;;;;;;41.45;19.70;;;16.10;99.90;;;;;;4941697;29;20483;-72
2023/10/09 06:38:23;;;;;;;41.88;19.38;;;16.10;99.90;;;;;;4938875;29;20151;-72
2023/10/09 06:41:34;;;;;;;40.90;20.00;;;16.10;99.90;;;;;;4939205;29;20512;-72
2023/10/09 06:43:53;;;;;;;35.28;18.50;;;16.10;99.90;;;;;;4930414;29;20122;-72
2023/10/09 06:48:55;;;;;;;38.08;19.17;;;16.20;99.90;;;;;;4938638;29;20050;-72
2023/10/09 06:57:48;;;;;;;35.95;17.65;;;16.30;99.90;;;;;;4973692;28;20054;-73
2023/10/09 07:17:00;;;;;;;31.30;14.80;;;16.40;99.90;;;;;;4970778;28;20141;-73
2023/10/09 07:22:16;;;;;;;37.38;14.57;;;16.50;99.90;;;;;;4996236;28;20045;-68
2023/10/09 07:24:49;;;;;;;25.65;13.80;;;16.60;99.90;;;;;;4989301;28;20037;-68
2023/10/09 07:27:17;;;;;;;30.85;14.45;;;16.50;99.90;;;;;;5004339;28;20626;-67
2023/10/09 07:29:49;;;;;;;29.17;14.55;;;16.60;99.90;;;;;;5022713;28;20427;-67
2023/10/09 07:32:20;;;;;;;26.05;13.70;;;16.60;99.90;;;;;;4984245;28;20512;-67
2023/10/09 07:34:58;;;;;;;25.50;13.13;;;16.60;99.90;;;;;;4976044;28;20065;-68
2023/10/09 07:37:30;;;;;;;26.13;13.35;;;16.60;99.90;;;;;;4999295;28;20042;-69
2023/10/09 07:39:57;;;;;;;27.77;13.25;;;16.60;99.90;;;;;;4978748;28;20109;-69
2023/10/09 07:42:43;;;;;;;27.95;12.93;;;16.60;99.90;;;;;;4984363;28;20042;-69
2023/10/09 07:48:05;;;;;;;21.75;11.90;;;16.70;99.90;;;;;;4982980;28;20543;-69
2023/10/09 07:50:40;;;;;;;26.98;12.00;;;16.70;99.90;;;;;;4971947;28;20049;-67
2023/10/09 07:53:25;;;;;;;24.17;11.02;;;16.70;99.90;;;;;;4993339;28;20093;-68
2023/10/09 07:55:58;;;;;;;24.35;10.65;;;16.70;99.90;;;;;;4970440;28;20049;-68
2023/10/09 07:58:25;;;;;;;24.95;11.93;;;16.80;99.90;;;;;;4989136;28;20048;-68
2023/10/09 08:01:07;;;;;;;22.70;11.00;;;16.90;99.90;;;;;;5006378;28;20042;-68
2023/10/09 08:03:36;;;;;;;25.98;11.32;;;16.90;99.90;;;;;;4989541;28;20603;-68
2023/10/09 08:19:56;;;;;;;21.88;10.80;;;17.10;99.90;;;;;;4980467;28;20419;-68
2023/10/09 08:24:55;;;;;;;21.30;11.63;;;17.20;99.90;;;;;;4987610;28;20121;-67
2023/10/09 08:32:43;;;;;;;23.23;11.95;;;17.30;99.90;;;;;;4986457;28;20523;-67
2023/10/09 08:37:53;;;;;;;26.98;11.65;;;17.40;99.90;;;;;;5012558;28;20485;-67
2023/10/09 08:40:21;;;;;;;26.38;11.55;;;17.40;99.90;;;;;;4998327;28;20039;-67
2023/10/09 08:43:08;;;;;;;25.92;11.75;;;17.40;99.90;;;;;;4970024;28;20404;-69
2023/10/09 08:45:39;;;;;;;23.30;11.73;;;17.40;99.90;;;;;;4974213;28;20047;-69
2023/10/09 08:48:08;;;;;;;24.57;11.53;;;17.50;99.90;;;;;;4968741;28;20442;-67
2023/10/09 08:50:36;;;;;;;23.55;11.25;;;17.50;99.90;;;;;;4985493;28;20045;-67
2023/10/09 08:53:05;;;;;;;28.27;11.75;;;17.40;99.90;;;;;;4974024;28;20046;-67
2023/10/09 08:55:30;;;;;;;22.80;11.52;;;17.50;99.90;;;;;;4989587;28;20042;-69
2023/10/09 08:57:58;;;;;;;18.85;10.70;;;17.50;99.90;;;;;;4983877;28;20085;-69
2023/10/09 09:00:23;;;;;;;22.60;10.60;;;17.60;99.90;;;;;;4970379;28;20141;-69
2023/10/09 09:02:55;;;;;;;20.15;10.40;;;17.60;99.90;;;;;;4966240;28;20482;-68
2023/10/09 09:05:21;;;;;;;23.48;9.82;;;17.70;99.90;;;;;;4985416;28;20412;-68
2023/10/09 09:07:48;;;;;;;22.55;10.02;;;17.70;99.90;;;;;;4961989;28;20490;-68
2023/10/09 09:10:23;;;;;;;22.35;10.00;;;17.70;99.90;;;;;;4981839;28;20089;-68
2023/10/09 09:13:00;;;;;;;17.30;9.57;;;17.80;99.90;;;;;;4962644;28;20048;-68
2023/10/09 09:15:27;;;;;;;18.33;10.00;;;17.80;99.90;;;;;;4983998;28;20038;-68
2023/10/09 09:18:06;;;;;;;19.27;9.98;;;17.80;99.90;;;;;;4982202;28;20038;-68
2023/10/09 09:20:36;;;;;;;21.20;9.90;;;17.80;99.90;;;;;;4955177;28;20504;-68
2023/10/09 09:23:12;;;;;;;19.45;9.98;;;17.80;99.90;;;;;;4988443;28;20046;-68
2023/10/09 09:25:57;;;;;;;19.55;9.95;;;17.70;99.90;;;;;;4965569;28;20070;-67
2023/10/09 09:28:23;;;;;;;19.90;9.60;;;17.70;99.90;;;;;;4990549;28;20046;-67
2023/10/09 09:33:43;;;;;;;19.93;9.77;;;17.60;99.90;;;;;;4965942;28;20130;-68
2023/10/09 09:36:12;;;;;;;23.55;10.50;;;17.50;99.90;;;;;;4992084;28;20109;-66
2023/10/09 10:04:44;;;;;;;20.40;10.75;;;17.40;99.90;;;;;;4977806;28;20081;-67
2023/10/09 10:07:12;;;;;;;22.65;10.60;;;17.40;99.90;;;;;;4973724;28;20038;-67
2023/10/09 10:14:21;;;;;;;24.80;10.45;;;17.50;99.90;;;;;;4985364;28;20455;-68
2023/10/09 10:24:51;;;;;;;24.65;9.98;;;17.90;99.90;;;;;;4973900;28;20118;-67
2023/10/09 10:27:24;;;;;;;22.23;9.73;;;18.10;99.90;;;;;;4988745;28;20054;-67
2023/10/09 10:30:10;;;;;;;22.77;9.25;;;18.20;99.90;;;;;;4991110;28;20034;-67
2023/10/09 10:32:51;;;;;;;20.70;8.52;;;18.30;99.90;;;;;;4972612;28;20047;-68
2023/10/09 10:35:20;;;;;;;22.52;8.82;;;18.50;99.90;;;;;;4972425;28;20053;-68
2023/10/09 10:38:00;;;;;;;17.65;8.75;;;18.60;99.90;;;;;;4990979;28;20506;-67
2023/10/09 10:40:45;;;;;;;21.92;8.88;;;18.70;99.90;;;;;;4983894;28;20046;-69
2023/10/09 10:48:59;;;;;;;19.60;8.80;;;18.90;99.90;;;;;;4978706;28;20038;-67
2023/10/09 10:51:40;;;;;;;21.45;8.73;;;19.00;99.90;;;;;;4983252;28;20030;-68
2023/10/09 10:56:57;;;;;;;18.23;8.50;;;18.80;99.90;;;;;;4980813;28;20118;-68
2023/10/09 10:59:24;;;;;;;18.25;7.72;;;18.70;99.90;;;;;;4985046;28;20077;-68
2023/10/09 11:15:44;;;;;;;17.85;7.93;;;18.50;99.90;;;;;;4988462;28;20061;-69
2023/10/09 11:18:19;;;;;;;19.73;7.55;;;18.50;99.90;;;;;;4994398;28;20034;-68
2023/10/09 11:21:40;;;;;;;15.50;7.68;;;18.50;99.90;;;;;;4986082;28;20483;-67
2023/10/09 11:26:27;;;;;;;17.27;7.57;;;18.50;99.90;;;;;;5002544;28;20121;-68
2023/10/09 11:29:13;;;;;;;13.00;7.13;;;18.60;99.90;;;;;;4994230;28;20038;-67
2023/10/09 11:31:40;;;;;;;18.52;7.25;;;18.60;99.90;;;;;;4988359;28;20751;-67
2023/10/09 11:34:28;;;;;;;17.10;7.75;;;18.80;99.90;;;;;;4993955;28;20117;-67
2023/10/09 11:37:01;;;;;;;13.73;6.68;;;18.90;99.90;;;;;;4987602;28;20049;-69
2023/10/09 11:39:34;;;;;;;19.42;7.07;;;19.00;99.90;;;;;;4986803;28;20476;-67
2023/10/09 11:42:05;;;;;;;15.68;7.22;;;19.10;99.90;;;;;;4990573;28;20390;-67
2023/10/09 11:44:45;;;;;;;20.15;7.07;;;19.00;99.90;;;;;;4994115;28;20042;-67
2023/10/09 11:49:56;;;;;;;18.90;7.28;;;19.00;99.90;;;;;;4980052;28;20694;-68
2023/10/09 11:54:58;;;;;;;14.38;6.88;;;19.00;99.90;;;;;;4980588;28;20078;-68
2023/10/09 11:57:30;;;;;;;18.88;7.43;;;19.00;99.90;;;;;;4974299;28;20075;-68
2023/10/09 12:00:00;;;;;;;18.60;7.80;;;19.00;99.90;;;;;;4991064;28;20064;-68
2023/10/09 12:02:26;;;;;;;17.20;7.13;;;19.00;99.90;;;;;;4995601;28;20065;-68
2023/10/09 12:04:51;;;;;;;16.77;6.85;;;19.00;99.90;;;;;;4968458;28;20100;-67
2023/10/09 12:07:20;;;;;;;14.98;6.85;;;19.10;99.90;;;;;;4967293;28;20044;-69
2023/10/09 12:09:48;;;;;;;10.05;6.20;;;19.00;99.90;;;;;;4989829;28;20097;-69
2023/10/09 12:12:13;;;;;;;13.55;5.53;;;19.00;99.90;;;;;;4980504;28;20497;-69
2023/10/09 12:14:39;;;;;;;13.05;6.20;;;18.90;99.90;;;;;;4992767;28;20042;-69
2023/10/09 12:17:05;;;;;;;14.80;6.20;;;18.90;99.90;;;;;;5008948;28;20041;-69
2023/10/09 12:19:38;;;;;;;11.65;5.75;;;18.90;99.90;;;;;;4995189;28;20062;-69
2023/10/09 12:22:15;;;;;;;15.82;6.28;;;18.80;99.90;;;;;;4990820;28;20077;-69
2023/10/09 12:24:43;;;;;;;12.23;6.07;;;18.80;99.90;;;;;;4976829;28;20042;-69
2023/10/09 12:27:11;;;;;;;13.70;5.90;;;18.80;99.90;;;;;;4982049;28;20042;-69
2023/10/09 12:29:37;;;;;;;13.57;6.03;;;18.80;99.90;;;;;;4984770;28;20145;-68
2023/10/09 12:32:03;;;;;;;14.68;6.10;;;18.80;99.90;;;;;;4987729;28;20125;-67
2023/10/09 12:34:30;;;;;;;12.60;5.80;;;18.80;99.90;;;;;;4972667;28;20073;-69
2023/10/09 12:37:01;;;;;;;13.10;5.63;;;18.70;99.90;;;;;;4979678;28;20051;-69
2023/10/09 12:39:33;;;;;;;;;;;18.70;99.90;;;;;;4985117;28;20042;-69
2023/10/09 12:42:06;;;;;;;10.10;5.20;;;18.70;99.90;;;;;;4980352;28;19925;-69
2023/10/09 12:44:38;;;;;;;10.27;5.38;;;18.70;99.90;;;;;;4985705;28;20043;-68
2023/10/09 12:47:05;;;;;;;10.60;6.00;;;18.80;99.90;;;;;;4974001;28;20403;-69
2023/10/09 12:49:31;;;;;;;12.82;5.45;;;18.90;99.90;;;;;;4981982;28;20670;-67
2023/10/09 12:51:58;;;;;;;10.05;5.55;;;19.00;99.90;;;;;;4975311;28;20046;-67
2023/10/09 12:54:27;;;;;;;11.70;5.30;;;19.00;99.90;;;;;;4974727;28;20042;-69
2023/10/09 12:56:56;;;;;;;12.98;4.95;;;19.10;99.90;;;;;;4992559;28;20073;-69
2023/10/09 12:59:23;;;;;;;10.18;4.70;;;19.20;99.90;;;;;;4981624;28;20038;-68
2023/10/09 13:01:52;;;;;;;10.05;4.95;;;19.30;99.90;;;;;;4971976;28;20050;-70
2023/10/09 13:04:22;;;;;;;12.10;4.70;;;19.60;99.90;;;;;;4991769;28;20057;-69
2023/10/09 13:06:51;;;;;;;10.32;4.20;;;19.80;99.90;;;;;;4986990;28;20517;-68
2023/10/09 13:09:32;;;;;;;8.35;4.20;;;20.00;99.90;;;;;;4974874;28;20045;-67
2023/10/09 13:12:00;;;;;;;8.63;3.38;;;20.00;99.90;;;;;;4986866;28;20039;-68
2023/10/09 13:14:33;;;;;;;8.73;3.20;;;20.00;99.90;;;;;;4975075;28;20085;-68
2023/10/09 13:16:59;;;;;;;10.07;3.55;;;20.00;99.90;;;;;;4966203;28;20516;-68
2023/10/09 13:19:27;;;;;;;8.40;3.13;;;20.00;99.90;;;;;;4985528;28;20035;-67
2023/10/09 13:21:53;;;;;;;8.38;3.38;;;20.00;99.90;;;;;;4992068;28;20068;-69
2023/10/09 13:24:24;;;;;;;8.60;3.42;;;20.00;99.90;;;;;;4989904;28;20519;-68
2023/10/09 13:26:57;;;;;;;5.85;2.78;;;19.90;99.90;;;;;;4993226;28;20045;-67
2023/10/09 13:29:23;;;;;;;8.85;3.38;;;19.90;99.90;;;;;;4984482;28;20492;-68
2023/10/09 13:31:52;;;;;;;6.30;2.88;;;19.80;99.90;;;;;;4975189;28;20045;-68
2023/10/09 13:34:18;;;;;;;6.57;2.83;;;19.60;99.90;;;;;;4972415;28;20408;-68
2023/10/09 13:36:52;;;;;;;7.07;2.95;;;19.60;99.90;;;;;;4986053;28;20040;-69
2023/10/09 13:39:24;;;;;;;9.02;3.35;;;19.60;99.90;;;;;;4987666;28;20038;-68
2023/10/09 13:41:58;;;;;;;8.63;3.15;;;19.60;99.90;;;;;;4985791;28;20062;-69
2023/10/09 13:44:31;;;;;;;9.43;3.55;;;19.60;99.90;;;;;;4978782;28;20065;-69
2023/10/09 13:46:59;;;;;;;8.15;3.38;;;19.60;99.90;;;;;;4982909;28;20128;-67
2023/10/09 13:49:31;;;;;;;8.35;3.65;;;19.60;99.90;;;;;;4970613;28;20448;-69
2023/10/09 13:52:01;;;;;;;10.25;3.38;;;19.50;99.90;;;;;;4979985;28;20042;-67
2023/10/09 13:57:06;;;;;;;9.63;3.60;;;19.50;99.90;;;;;;4973174;28;20045;-69
2023/10/09 13:59:35;;;;;;;10.88;3.47;;;19.50;99.90;;;;;;4986410;28;20034;-67
2023/10/09 14:02:02;;;;;;;9.68;3.20;;;19.50;99.90;;;;;;4988797;28;20038;-67
2023/10/09 14:04:28;;;;;;;6.78;3.00;;;19.50;99.90;;;;;;4965624;28;20054;-68
2023/10/09 14:06:58;;;;;;;8.73;3.00;;;19.60;99.90;;;;;;4988031;28;20038;-67
2023/10/09 14:09:30;;;;;;;9.00;3.25;;;19.70;99.90;;;;;;4986285;28;20113;-69
2023/10/09 14:12:06;;;;;;;6.32;2.90;;;19.80;99.90;;;;;;4965654;28;20070;-68
2023/10/09 14:14:49;;;;;;;8.05;3.13;;;19.90;99.90;;;;;;4966044;28;20074;-68
2023/10/09 14:17:19;;;;;;;8.30;2.83;;;19.90;99.90;;;;;;4971491;28;20121;-69
2023/10/09 14:19:47;;;;;;;7.72;3.03;;;19.80;99.90;;;;;;4980712;28;20038;-68
2023/10/09 14:22:20;;;;;;;4.95;2.65;;;19.80;99.90;;;;;;4988183;28;20045;-69
2023/10/09 14:24:47;;;;;;;6.78;2.63;;;19.80;99.90;;;;;;4989259;28;20035;-68
2023/10/09 14:27:19;;;;;;;8.25;3.28;;;19.80;99.90;;;;;;4968349;28;20192;-68
2023/10/09 14:29:48;;;;;;;7.47;3.28;;;19.70;99.90;;;;;;4992022;28;20117;-68
2023/10/09 14:32:15;;;;;;;10.32;3.20;;;19.60;99.90;;;;;;4991486;28;20053;-68
2023/10/09 14:34:49;;;;;;;8.13;3.00;;;19.60;99.90;;;;;;4978352;28;20050;-69
2023/10/09 14:37:16;;;;;;;7.82;3.25;;;19.60;99.90;;;;;;4965470;28;20153;-68
2023/10/09 14:39:42;;;;;;;7.28;3.28;;;19.60;99.90;;;;;;4995754;28;20045;-69
2023/10/09 14:42:11;;;;;;;8.70;3.47;;;19.40;99.90;;;;;;4972163;28;20089;-68
2023/10/09 14:44:40;;;;;;;12.70;4.18;;;19.30;99.90;;;;;;4964122;28;20040;-67
2023/10/09 14:47:06;;;;;;;11.02;3.85;;;19.10;99.90;;;;;;4970495;28;20042;-68
2023/10/09 14:49:43;;;;;;;12.68;4.15;;;19.00;99.90;;;;;;4953013;28;20485;-69
2023/10/09 14:52:10;;;;;;;9.98;4.05;;;18.90;99.90;;;;;;4990648;28;20135;-68
2023/10/09 14:54:36;;;;;;;10.77;4.10;;;18.80;99.90;;;;;;4987445;28;20448;-67
2023/10/09 14:57:05;;;;;;;12.70;4.35;;;18.80;99.90;;;;;;4967209;28;20050;-67
2023/10/09 14:59:34;;;;;;;8.65;4.13;;;18.70;99.90;;;;;;4984194;28;20124;-67
2023/10/09 15:02:00;;;;;;;10.70;4.38;;;18.70;99.90;;;;;;4993661;28;20444;-67
2023/10/09 15:04:26;;;;;;;11.00;4.38;;;18.60;99.90;;;;;;4991592;28;20041;-69
2023/10/09 15:06:52;;;;;;;17.65;5.18;;;18.60;99.90;;;;;;4988578;28;20034;-69
2023/10/09 15:09:28;;;;;;;13.48;4.57;;;18.50;99.90;;;;;;4976696;28;20038;-69
2023/10/09 15:11:54;;;;;;;13.70;4.70;;;18.50;99.90;;;;;;4978322;28;20054;-69
2023/10/09 15:14:20;;;;;;;8.45;4.35;;;18.50;99.90;;;;;;4970302;28;20217;-69
2023/10/09 15:16:50;;;;;;;12.73;4.10;;;18.40;99.90;;;;;;4982339;28;20069;-69
2023/10/09 15:19:16;;;;;;;13.30;4.28;;;18.40;99.90;;;;;;4988734;28;20038;-67
2023/10/09 15:21:45;;;;;;;11.35;3.97;;;18.40;99.90;;;;;;4990322;28;20030;-67
2023/10/09 15:24:19;;;;;;;12.63;4.38;;;18.40;99.90;;;;;;4984723;28;20117;-69
2023/10/09 15:26:57;;;;;;;10.02;4.25;;;18.40;99.90;;;;;;4994152;28;20081;-71
2023/10/09 15:29:32;;;;;;;16.25;4.53;;;18.40;99.90;;;;;;4986104;28;20122;-70
2023/10/09 15:32:04;;;;;;;10.07;4.50;;;18.40;99.90;;;;;;4987773;28;20034;-70
2023/10/09 15:34:34;;;;;;;10.85;4.50;;;18.30;99.90;;;;;;4987132;28;20054;-71
2023/10/09 15:37:00;;;;;;;11.02;4.03;;;18.40;99.90;;;;;;4986373;28;20515;-71
2023/10/09 15:39:26;;;;;;;9.85;4.15;;;18.30;99.90;;;;;;4993322;28;20042;-71
2023/10/09 15:41:51;;;;;;;17.90;4.10;;;18.30;99.90;;;;;;4970849;28;20567;-70
2023/10/09 15:44:17;;;;;;;12.00;4.50;;;18.30;99.90;;;;;;4975272;28;20038;-71
2023/10/09 15:46:45;;;;;;;8.82;4.00;;;18.30;99.90;;;;;;4994777;28;20042;-70
2023/10/09 15:49:15;;;;;;;11.32;4.32;;;18.30;99.90;;;;;;4988344;28;20039;-68
2023/10/09 15:51:40;;;;;;;10.20;4.50;;;18.20;99.90;;;;;;4993586;28;20053;-69
2023/10/09 15:54:10;;;;;;;9.82;4.43;;;18.20;99.90;;;;;;4982743;28;20050;-70
2023/10/09 15:56:39;;;;;;;13.55;4.85;;;18.20;99.90;;;;;;4957713;28;20125;-69
2023/10/09 15:59:05;;;;;;;10.32;4.50;;;18.20;99.90;;;;;;4969778;28;20042;-68
2023/10/09 16:01:31;;;;;;;12.52;4.00;;;18.20;99.90;;;;;;5004004;28;20455;-68
2023/10/09 16:03:56;;;;;;;10.73;4.50;;;18.10;99.90;;;;;;4975445;28;20034;-68
2023/10/09 16:06:27;;;;;;;15.15;4.32;;;18.10;99.90;;;;;;4989374;28;20053;-68
2023/10/09 16:08:52;;;;;;;8.80;3.87;;;18.10;99.90;;;;;;4987737;28;20552;-69
2023/10/09 16:11:25;;;;;;;11.05;4.00;;;18.10;99.90;;;;;;4990838;28;20523;-68
2023/10/09 16:13:51;;;;;;;12.57;4.18;;;18.00;99.90;;;;;;4968020;28;20444;-67
2023/10/09 16:16:28;;;;;;;10.75;4.18;;;18.00;99.90;;;;;;4969316;28;20062;-68
2023/10/09 16:18:55;;;;;;;9.50;4.10;;;18.00;99.90;;;;;;4969922;28;20038;-69
2023/10/09 16:21:27;;;;;;;12.98;4.15;;;18.00;99.90;;;;;;4987045;28;20104;-67
2023/10/09 16:23:53;;;;;;;10.02;4.80;;;18.00;99.90;;;;;;4983640;28;20054;-68
2023/10/09 16:26:24;;;;;;;7.20;3.60;;;17.90;99.90;;;;;;4972638;28;20042;-68
2023/10/09 16:28:51;;;;;;;13.17;4.07;;;17.90;99.90;;;;;;4993397;28;20038;-69
2023/10/09 16:31:23;;;;;;;10.05;3.95;;;17.80;99.90;;;;;;4991579;28;20057;-68
2023/10/09 16:33:48;;;;;;;13.88;3.70;;;17.80;99.90;;;;;;4988282;28;20050;-68
2023/10/09 16:36:15;;;;;;;15.27;4.05;;;17.70;99.90;;;;;;4982796;28;20053;-68
2023/10/09 16:38:41;;;;;;;9.70;3.83;;;17.70;99.90;;;;;;4986139;28;20146;-69